sensor_id;sensor_type;location;lat;lon;timestamp;P1;durP1;ratioP1;P2;durP2;ratioP2
25503;SDS011;13410;52.114;5.718;2022-07-29T00:00:43;3.20;;;1.50;;
25503;SDS011;13410;52.114;5.718;2022-07-29T00:03:09;5.25;;;1.55;;
25503;SDS011;13410;52.114;5.718;2022-07-29T00:05:38;3.17;;;1.60;;
25503;SDS011;13410;52.114;5.718;2022-07-29T00:08:05;5.38;;;1.90;;
25503;SDS011;13410;52.114;5.718;2022-07-29T00:10:31;4.85;;;1.90;;
25503;SDS011;13410;52.114;5.718;2022-07-29T00:12:56;1.85;;;1.60;;
25503;SDS011;13410;52.114;5.718;2022-07-29T00:15:22;3.90;;;1.55;;
25503;SDS011;13410;52.114;5.718;2022-07-29T00:17:47;3.55;;;2.10;;
25503;SDS011;13410;52.114;5.718;2022-07-29T00:20:13;4.80;;;1.70;;
25503;SDS011;13410;52.114;5.718;2022-07-29T00:22:38;3.42;;;1.92;;
25503;SDS011;13410;52.114;5.718;2022-07-29T00:25:05;5.13;;;1.60;;
25503;SDS011;13410;52.114;5.718;2022-07-29T00:27:31;3.67;;;1.70;;
25503;SDS011;13410;52.114;5.718;2022-07-29T00:29:56;4.53;;;1.58;;
25503;SDS011;13410;52.114;5.718;2022-07-29T00:32:22;4.65;;;1.90;;
25503;SDS011;13410;52.114;5.718;2022-07-29T00:34:47;3.17;;;1.63;;
25503;SDS011;13410;52.114;5.718;2022-07-29T00:37:32;6.72;;;1.90;;
25503;SDS011;13410;52.114;5.718;2022-07-29T00:39:57;5.88;;;1.63;;
25503;SDS011;13410;52.114;5.718;2022-07-29T00:42:23;4.43;;;1.77;;
25503;SDS011;13410;52.114;5.718;2022-07-29T00:44:48;8.43;;;1.98;;
25503;SDS011;13410;52.114;5.718;2022-07-29T00:47:14;2.15;;;1.63;;
25503;SDS011;13410;52.114;5.718;2022-07-29T00:49:40;5.47;;;1.90;;
25503;SDS011;13410;52.114;5.718;2022-07-29T00:52:10;5.65;;;1.90;;
25503;SDS011;13410;52.114;5.718;2022-07-29T00:54:37;7.57;;;1.80;;
25503;SDS011;13410;52.114;5.718;2022-07-29T00:57:04;3.53;;;1.80;;
25503;SDS011;13410;52.114;5.718;2022-07-29T00:59:32;2.67;;;1.60;;
25503;SDS011;13410;52.114;5.718;2022-07-29T01:01:57;5.13;;;1.58;;
25503;SDS011;13410;52.114;5.718;2022-07-29T01:04:23;4.40;;;1.70;;
25503;SDS011;13410;52.114;5.718;2022-07-29T01:06:49;5.05;;;1.80;;
25503;SDS011;13410;52.114;5.718;2022-07-29T01:09:16;3.45;;;1.92;;
25503;SDS011;13410;52.114;5.718;2022-07-29T01:11:43;3.20;;;1.80;;
25503;SDS011;13410;52.114;5.718;2022-07-29T01:14:13;3.67;;;1.67;;
25503;SDS011;13410;52.114;5.718;2022-07-29T01:31:11;4.93;;;2.17;;
25503;SDS011;13410;52.114;5.718;2022-07-29T01:33:43;5.78;;;1.90;;
25503;SDS011;13410;52.114;5.718;2022-07-29T01:36:18;5.05;;;2.33;;
25503;SDS011;13410;52.114;5.718;2022-07-29T01:39:37;4.63;;;2.35;;
25503;SDS011;13410;52.114;5.718;2022-07-29T01:41:52;4.50;;;2.10;;
25503;SDS011;13410;52.114;5.718;2022-07-29T01:44:34;3.50;;;2.17;;
25503;SDS011;13410;52.114;5.718;2022-07-29T01:47:13;6.28;;;1.98;;
25503;SDS011;13410;52.114;5.718;2022-07-29T01:49:46;5.82;;;2.15;;
25503;SDS011;13410;52.114;5.718;2022-07-29T01:52:19;4.03;;;2.42;;
25503;SDS011;13410;52.114;5.718;2022-07-29T01:54:53;5.78;;;2.58;;
25503;SDS011;13410;52.114;5.718;2022-07-29T01:57:27;5.70;;;2.50;;
25503;SDS011;13410;52.114;5.718;2022-07-29T01:59:57;4.35;;;2.40;;
25503;SDS011;13410;52.114;5.718;2022-07-29T02:02:25;3.20;;;2.40;;
25503;SDS011;13410;52.114;5.718;2022-07-29T02:04:52;4.20;;;2.58;;
25503;SDS011;13410;52.114;5.718;2022-07-29T02:07:20;5.38;;;2.40;;
25503;SDS011;13410;52.114;5.718;2022-07-29T02:09:49;4.97;;;2.45;;
25503;SDS011;13410;52.114;5.718;2022-07-29T02:12:19;3.67;;;2.30;;
25503;SDS011;13410;52.114;5.718;2022-07-29T02:14:49;4.00;;;2.42;;
25503;SDS011;13410;52.114;5.718;2022-07-29T02:17:25;6.85;;;2.90;;
25503;SDS011;13410;52.114;5.718;2022-07-29T02:19:56;5.50;;;2.50;;
25503;SDS011;13410;52.114;5.718;2022-07-29T02:22:24;6.75;;;2.63;;
25503;SDS011;13410;52.114;5.718;2022-07-29T02:24:53;5.15;;;2.50;;
25503;SDS011;13410;52.114;5.718;2022-07-29T02:27:20;5.82;;;2.50;;
25503;SDS011;13410;52.114;5.718;2022-07-29T02:29:47;4.18;;;2.47;;
25503;SDS011;13410;52.114;5.718;2022-07-29T02:32:15;7.32;;;2.65;;
25503;SDS011;13410;52.114;5.718;2022-07-29T02:34:44;5.35;;;2.33;;
25503;SDS011;13410;52.114;5.718;2022-07-29T02:37:14;4.07;;;2.40;;
25503;SDS011;13410;52.114;5.718;2022-07-29T02:39:46;5.82;;;2.80;;
25503;SDS011;13410;52.114;5.718;2022-07-29T02:42:14;4.68;;;2.67;;
25503;SDS011;13410;52.114;5.718;2022-07-29T02:44:42;5.32;;;2.63;;
25503;SDS011;13410;52.114;5.718;2022-07-29T02:49:57;7.20;;;2.90;;
25503;SDS011;13410;52.114;5.718;2022-07-29T02:55:16;4.22;;;2.90;;
25503;SDS011;13410;52.114;5.718;2022-07-29T02:57:51;4.50;;;2.60;;
25503;SDS011;13410;52.114;5.718;2022-07-29T03:00:27;4.95;;;2.60;;
25503;SDS011;13410;52.114;5.718;2022-07-29T03:02:56;3.67;;;2.90;;
25503;SDS011;13410;52.114;5.718;2022-07-29T03:05:24;6.20;;;3.10;;
25503;SDS011;13410;52.114;5.718;2022-07-29T03:08:00;7.18;;;2.92;;
25503;SDS011;13410;52.114;5.718;2022-07-29T03:10:28;7.05;;;3.00;;
25503;SDS011;13410;52.114;5.718;2022-07-29T03:12:56;4.72;;;2.50;;
25503;SDS011;13410;52.114;5.718;2022-07-29T03:15:22;5.28;;;3.13;;
25503;SDS011;13410;52.114;5.718;2022-07-29T03:17:49;7.03;;;3.15;;
25503;SDS011;13410;52.114;5.718;2022-07-29T03:20:15;5.25;;;3.10;;
25503;SDS011;13410;52.114;5.718;2022-07-29T03:22:44;5.63;;;3.22;;
25503;SDS011;13410;52.114;5.718;2022-07-29T03:25:14;8.82;;;3.30;;
25503;SDS011;13410;52.114;5.718;2022-07-29T03:27:41;4.28;;;3.08;;
25503;SDS011;13410;52.114;5.718;2022-07-29T03:30:08;5.35;;;3.03;;
25503;SDS011;13410;52.114;5.718;2022-07-29T03:32:35;6.45;;;3.20;;
25503;SDS011;13410;52.114;5.718;2022-07-29T03:35:01;6.45;;;3.45;;
25503;SDS011;13410;52.114;5.718;2022-07-29T03:37:28;4.38;;;3.00;;
25503;SDS011;13410;52.114;5.718;2022-07-29T03:39:55;7.28;;;3.03;;
25503;SDS011;13410;52.114;5.718;2022-07-29T03:42:27;5.18;;;3.10;;
25503;SDS011;13410;52.114;5.718;2022-07-29T03:44:56;6.20;;;3.25;;
25503;SDS011;13410;52.114;5.718;2022-07-29T03:47:24;5.07;;;3.47;;
25503;SDS011;13410;52.114;5.718;2022-07-29T03:49:53;7.47;;;2.95;;
25503;SDS011;13410;52.114;5.718;2022-07-29T03:52:24;6.15;;;2.92;;
25503;SDS011;13410;52.114;5.718;2022-07-29T03:54:50;3.67;;;2.90;;
25503;SDS011;13410;52.114;5.718;2022-07-29T03:57:16;5.75;;;2.85;;
25503;SDS011;13410;52.114;5.718;2022-07-29T03:59:45;6.50;;;3.20;;
25503;SDS011;13410;52.114;5.718;2022-07-29T04:02:13;7.00;;;3.17;;
25503;SDS011;13410;52.114;5.718;2022-07-29T04:04:39;4.07;;;3.05;;
25503;SDS011;13410;52.114;5.718;2022-07-29T04:07:05;7.55;;;3.20;;
25503;SDS011;13410;52.114;5.718;2022-07-29T04:09:31;4.60;;;2.90;;
25503;SDS011;13410;52.114;5.718;2022-07-29T04:11:56;6.07;;;2.80;;
25503;SDS011;13410;52.114;5.718;2022-07-29T04:14:22;6.85;;;3.20;;
25503;SDS011;13410;52.114;5.718;2022-07-29T04:16:48;4.43;;;2.80;;
25503;SDS011;13410;52.114;5.718;2022-07-29T04:19:13;3.88;;;2.72;;
25503;SDS011;13410;52.114;5.718;2022-07-29T04:21:39;4.35;;;2.70;;
25503;SDS011;13410;52.114;5.718;2022-07-29T04:24:05;5.18;;;2.70;;
25503;SDS011;13410;52.114;5.718;2022-07-29T04:26:32;7.05;;;2.78;;
25503;SDS011;13410;52.114;5.718;2022-07-29T04:28:58;6.28;;;3.10;;
25503;SDS011;13410;52.114;5.718;2022-07-29T04:31:24;5.50;;;3.03;;
25503;SDS011;13410;52.114;5.718;2022-07-29T04:33:50;5.25;;;2.92;;
25503;SDS011;13410;52.114;5.718;2022-07-29T04:36:15;7.22;;;3.10;;
25503;SDS011;13410;52.114;5.718;2022-07-29T04:38:44;5.97;;;3.17;;
25503;SDS011;13410;52.114;5.718;2022-07-29T04:41:10;8.27;;;3.20;;
25503;SDS011;13410;52.114;5.718;2022-07-29T04:43:35;4.72;;;3.25;;
25503;SDS011;13410;52.114;5.718;2022-07-29T04:46:03;7.72;;;3.42;;
25503;SDS011;13410;52.114;5.718;2022-07-29T04:48:28;5.25;;;3.30;;
25503;SDS011;13410;52.114;5.718;2022-07-29T04:50:54;8.75;;;3.20;;
25503;SDS011;13410;52.114;5.718;2022-07-29T04:53:20;4.72;;;3.35;;
25503;SDS011;13410;52.114;5.718;2022-07-29T04:55:46;4.85;;;3.60;;
25503;SDS011;13410;52.114;5.718;2022-07-29T04:58:11;8.27;;;3.25;;
25503;SDS011;13410;52.114;5.718;2022-07-29T05:00:37;5.13;;;3.47;;
25503;SDS011;13410;52.114;5.718;2022-07-29T05:03:03;7.57;;;3.60;;
25503;SDS011;13410;52.114;5.718;2022-07-29T05:05:29;5.50;;;3.42;;
25503;SDS011;13410;52.114;5.718;2022-07-29T05:07:55;7.88;;;3.88;;
25503;SDS011;13410;52.114;5.718;2022-07-29T05:10:21;4.60;;;3.30;;
25503;SDS011;13410;52.114;5.718;2022-07-29T05:12:47;7.30;;;3.55;;
25503;SDS011;13410;52.114;5.718;2022-07-29T05:15:12;5.50;;;3.50;;
25503;SDS011;13410;52.114;5.718;2022-07-29T05:17:38;5.93;;;3.42;;
25503;SDS011;13410;52.114;5.718;2022-07-29T05:20:04;5.47;;;3.25;;
25503;SDS011;13410;52.114;5.718;2022-07-29T05:22:30;5.95;;;3.30;;
25503;SDS011;13410;52.114;5.718;2022-07-29T05:24:56;4.55;;;3.50;;
25503;SDS011;13410;52.114;5.718;2022-07-29T05:27:21;5.30;;;3.55;;
25503;SDS011;13410;52.114;5.718;2022-07-29T05:29:47;5.57;;;3.50;;
25503;SDS011;13410;52.114;5.718;2022-07-29T05:32:13;7.90;;;3.30;;
25503;SDS011;13410;52.114;5.718;2022-07-29T05:34:38;5.15;;;3.30;;
25503;SDS011;13410;52.114;5.718;2022-07-29T05:37:04;5.97;;;3.58;;
25503;SDS011;13410;52.114;5.718;2022-07-29T05:39:30;8.82;;;3.28;;
25503;SDS011;13410;52.114;5.718;2022-07-29T05:41:55;7.45;;;3.20;;
25503;SDS011;13410;52.114;5.718;2022-07-29T05:44:21;5.35;;;3.10;;
25503;SDS011;13410;52.114;5.718;2022-07-29T05:46:47;7.45;;;3.47;;
25503;SDS011;13410;52.114;5.718;2022-07-29T05:49:12;9.38;;;3.50;;
25503;SDS011;13410;52.114;5.718;2022-07-29T05:51:38;4.47;;;3.30;;
25503;SDS011;13410;52.114;5.718;2022-07-29T05:54:03;5.90;;;2.90;;
25503;SDS011;13410;52.114;5.718;2022-07-29T05:56:29;4.65;;;2.90;;
25503;SDS011;13410;52.114;5.718;2022-07-29T05:58:54;6.68;;;2.88;;
25503;SDS011;13410;52.114;5.718;2022-07-29T06:01:20;5.50;;;2.95;;
25503;SDS011;13410;52.114;5.718;2022-07-29T06:03:46;8.70;;;2.92;;
25503;SDS011;13410;52.114;5.718;2022-07-29T06:06:11;7.13;;;3.40;;
25503;SDS011;13410;52.114;5.718;2022-07-29T06:08:37;5.53;;;3.50;;
25503;SDS011;13410;52.114;5.718;2022-07-29T06:11:03;6.53;;;3.28;;
25503;SDS011;13410;52.114;5.718;2022-07-29T06:13:30;5.90;;;3.17;;
25503;SDS011;13410;52.114;5.718;2022-07-29T06:15:56;3.97;;;2.70;;
25503;SDS011;13410;52.114;5.718;2022-07-29T06:18:21;5.93;;;3.08;;
25503;SDS011;13410;52.114;5.718;2022-07-29T06:20:50;4.88;;;3.03;;
25503;SDS011;13410;52.114;5.718;2022-07-29T06:23:16;5.35;;;3.17;;
25503;SDS011;13410;52.114;5.718;2022-07-29T06:25:42;7.65;;;3.20;;
25503;SDS011;13410;52.114;5.718;2022-07-29T06:28:08;4.68;;;3.00;;
25503;SDS011;13410;52.114;5.718;2022-07-29T06:30:34;6.53;;;2.95;;
25503;SDS011;13410;52.114;5.718;2022-07-29T06:32:59;7.00;;;2.95;;
25503;SDS011;13410;52.114;5.718;2022-07-29T06:35:26;3.50;;;2.80;;
25503;SDS011;13410;52.114;5.718;2022-07-29T06:37:52;6.78;;;2.75;;
25503;SDS011;13410;52.114;5.718;2022-07-29T06:40:18;4.93;;;3.03;;
25503;SDS011;13410;52.114;5.718;2022-07-29T06:43:02;7.78;;;3.35;;
25503;SDS011;13410;52.114;5.718;2022-07-29T06:45:28;4.55;;;2.88;;
25503;SDS011;13410;52.114;5.718;2022-07-29T06:47:54;6.63;;;2.63;;
25503;SDS011;13410;52.114;5.718;2022-07-29T06:50:19;7.93;;;3.88;;
25503;SDS011;13410;52.114;5.718;2022-07-29T06:52:46;5.63;;;3.00;;
25503;SDS011;13410;52.114;5.718;2022-07-29T06:55:12;3.50;;;2.80;;
25503;SDS011;13410;52.114;5.718;2022-07-29T06:57:38;5.22;;;2.83;;
25503;SDS011;13410;52.114;5.718;2022-07-29T07:00:03;5.35;;;3.42;;
25503;SDS011;13410;52.114;5.718;2022-07-29T07:02:30;5.32;;;2.70;;
25503;SDS011;13410;52.114;5.718;2022-07-29T07:04:55;4.35;;;3.08;;
25503;SDS011;13410;52.114;5.718;2022-07-29T07:07:21;5.38;;;3.10;;
25503;SDS011;13410;52.114;5.718;2022-07-29T07:09:47;5.53;;;3.10;;
25503;SDS011;13410;52.114;5.718;2022-07-29T07:12:12;4.25;;;2.83;;
25503;SDS011;13410;52.114;5.718;2022-07-29T07:14:38;6.30;;;3.42;;
25503;SDS011;13410;52.114;5.718;2022-07-29T07:17:05;4.22;;;3.20;;
25503;SDS011;13410;52.114;5.718;2022-07-29T07:19:31;8.70;;;4.35;;
25503;SDS011;13410;52.114;5.718;2022-07-29T07:21:57;6.13;;;2.85;;
25503;SDS011;13410;52.114;5.718;2022-07-29T07:24:23;4.38;;;2.92;;
25503;SDS011;13410;52.114;5.718;2022-07-29T07:26:48;3.90;;;2.78;;
25503;SDS011;13410;52.114;5.718;2022-07-29T07:29:14;5.00;;;2.90;;
25503;SDS011;13410;52.114;5.718;2022-07-29T07:31:40;3.75;;;2.60;;
25503;SDS011;13410;52.114;5.718;2022-07-29T07:34:09;5.82;;;2.78;;
25503;SDS011;13410;52.114;5.718;2022-07-29T07:36:34;5.75;;;2.80;;
25503;SDS011;13410;52.114;5.718;2022-07-29T07:39:00;6.82;;;3.13;;
25503;SDS011;13410;52.114;5.718;2022-07-29T07:41:26;3.53;;;2.60;;
25503;SDS011;13410;52.114;5.718;2022-07-29T07:43:51;5.47;;;2.50;;
25503;SDS011;13410;52.114;5.718;2022-07-29T07:46:17;6.05;;;2.83;;
25503;SDS011;13410;52.114;5.718;2022-07-29T07:48:42;4.75;;;2.67;;
25503;SDS011;13410;52.114;5.718;2022-07-29T07:51:08;5.63;;;2.67;;
25503;SDS011;13410;52.114;5.718;2022-07-29T07:53:33;4.57;;;2.90;;
25503;SDS011;13410;52.114;5.718;2022-07-29T07:55:59;7.95;;;2.88;;
25503;SDS011;13410;52.114;5.718;2022-07-29T07:58:25;6.90;;;2.95;;
25503;SDS011;13410;52.114;5.718;2022-07-29T08:00:51;3.83;;;2.92;;
25503;SDS011;13410;52.114;5.718;2022-07-29T08:03:16;3.42;;;2.90;;
25503;SDS011;13410;52.114;5.718;2022-07-29T08:05:42;3.38;;;2.60;;
25503;SDS011;13410;52.114;5.718;2022-07-29T08:08:08;4.75;;;3.13;;
25503;SDS011;13410;52.114;5.718;2022-07-29T08:10:33;6.88;;;3.20;;
25503;SDS011;13410;52.114;5.718;2022-07-29T08:13:17;7.47;;;3.58;;
25503;SDS011;13410;52.114;5.718;2022-07-29T08:15:44;5.25;;;2.92;;
25503;SDS011;13410;52.114;5.718;2022-07-29T08:18:10;5.18;;;3.03;;
25503;SDS011;13410;52.114;5.718;2022-07-29T08:20:36;5.32;;;2.85;;
25503;SDS011;13410;52.114;5.718;2022-07-29T08:23:03;8.38;;;3.17;;
25503;SDS011;13410;52.114;5.718;2022-07-29T08:25:31;6.72;;;2.90;;
25503;SDS011;13410;52.114;5.718;2022-07-29T08:27:57;5.13;;;3.00;;
25503;SDS011;13410;52.114;5.718;2022-07-29T08:30:23;4.70;;;2.50;;
25503;SDS011;13410;52.114;5.718;2022-07-29T08:32:49;4.97;;;2.92;;
25503;SDS011;13410;52.114;5.718;2022-07-29T08:35:17;4.55;;;2.85;;
25503;SDS011;13410;52.114;5.718;2022-07-29T08:37:44;5.13;;;2.88;;
25503;SDS011;13410;52.114;5.718;2022-07-29T08:40:09;6.22;;;2.90;;
25503;SDS011;13410;52.114;5.718;2022-07-29T08:42:35;6.20;;;2.97;;
25503;SDS011;13410;52.114;5.718;2022-07-29T08:45:01;5.97;;;2.78;;
25503;SDS011;13410;52.114;5.718;2022-07-29T08:47:28;8.13;;;2.72;;
25503;SDS011;13410;52.114;5.718;2022-07-29T08:49:54;5.47;;;2.65;;
25503;SDS011;13410;52.114;5.718;2022-07-29T08:52:19;5.28;;;2.60;;
25503;SDS011;13410;52.114;5.718;2022-07-29T08:54:45;6.97;;;2.80;;
25503;SDS011;13410;52.114;5.718;2022-07-29T08:57:14;5.15;;;2.47;;
25503;SDS011;13410;52.114;5.718;2022-07-29T08:59:44;7.32;;;2.92;;
25503;SDS011;13410;52.114;5.718;2022-07-29T09:02:21;4.73;;;2.90;;
25503;SDS011;13410;52.114;5.718;2022-07-29T09:04:57;7.03;;;3.20;;
25503;SDS011;13410;52.114;5.718;2022-07-29T09:07:25;6.25;;;2.42;;
25503;SDS011;13410;52.114;5.718;2022-07-29T09:09:50;4.60;;;2.47;;
25503;SDS011;13410;52.114;5.718;2022-07-29T09:12:16;5.70;;;2.58;;
25503;SDS011;13410;52.114;5.718;2022-07-29T09:14:42;5.28;;;2.40;;
25503;SDS011;13410;52.114;5.718;2022-07-29T09:17:07;3.78;;;2.42;;
25503;SDS011;13410;52.114;5.718;2022-07-29T09:19:34;6.13;;;2.90;;
25503;SDS011;13410;52.114;5.718;2022-07-29T09:22:05;4.38;;;2.40;;
25503;SDS011;13410;52.114;5.718;2022-07-29T09:27:10;4.18;;;2.33;;
25503;SDS011;13410;52.114;5.718;2022-07-29T09:29:42;10.63;;;2.88;;
25503;SDS011;13410;52.114;5.718;2022-07-29T09:32:09;8.90;;;2.60;;
25503;SDS011;13410;52.114;5.718;2022-07-29T09:34:36;7.63;;;2.58;;
25503;SDS011;13410;52.114;5.718;2022-07-29T09:37:04;6.10;;;2.70;;
25503;SDS011;13410;52.114;5.718;2022-07-29T09:41:56;4.38;;;1.90;;
25503;SDS011;13410;52.114;5.718;2022-07-29T09:44:23;6.05;;;2.60;;
25503;SDS011;13410;52.114;5.718;2022-07-29T09:49:50;11.43;;;2.40;;
25503;SDS011;13410;52.114;5.718;2022-07-29T09:52:17;3.95;;;2.38;;
25503;SDS011;13410;52.114;5.718;2022-07-29T09:54:43;5.45;;;2.50;;
25503;SDS011;13410;52.114;5.718;2022-07-29T09:57:21;5.00;;;2.38;;
25503;SDS011;13410;52.114;5.718;2022-07-29T10:00:07;4.53;;;2.10;;
25503;SDS011;13410;52.114;5.718;2022-07-29T10:02:35;4.78;;;2.30;;
25503;SDS011;13410;52.114;5.718;2022-07-29T10:05:03;6.72;;;2.33;;
25503;SDS011;13410;52.114;5.718;2022-07-29T10:07:53;6.57;;;2.50;;
25503;SDS011;13410;52.114;5.718;2022-07-29T10:10:18;7.97;;;2.70;;
25503;SDS011;13410;52.114;5.718;2022-07-29T10:12:49;3.92;;;2.30;;
25503;SDS011;13410;52.114;5.718;2022-07-29T10:15:26;6.50;;;2.35;;
25503;SDS011;13410;52.114;5.718;2022-07-29T10:17:54;5.25;;;2.55;;
25503;SDS011;13410;52.114;5.718;2022-07-29T10:20:24;5.40;;;2.30;;
25503;SDS011;13410;52.114;5.718;2022-07-29T10:22:51;5.32;;;2.40;;
25503;SDS011;13410;52.114;5.718;2022-07-29T10:25:18;3.75;;;2.65;;
25503;SDS011;13410;52.114;5.718;2022-07-29T10:27:45;4.60;;;1.83;;
25503;SDS011;13410;52.114;5.718;2022-07-29T10:30:13;4.03;;;2.10;;
25503;SDS011;13410;52.114;5.718;2022-07-29T10:33:05;5.53;;;2.40;;
25503;SDS011;13410;52.114;5.718;2022-07-29T10:44:24;8.73;;;2.20;;
25503;SDS011;13410;52.114;5.718;2022-07-29T10:46:52;4.65;;;1.90;;
25503;SDS011;13410;52.114;5.718;2022-07-29T10:49:19;4.50;;;2.00;;
25503;SDS011;13410;52.114;5.718;2022-07-29T10:59:41;4.85;;;2.20;;
25503;SDS011;13410;52.114;5.718;2022-07-29T11:05:05;4.72;;;2.40;;
25503;SDS011;13410;52.114;5.718;2022-07-29T11:07:33;4.32;;;2.20;;
25503;SDS011;13410;52.114;5.718;2022-07-29T11:15:07;6.18;;;2.50;;
25503;SDS011;13410;52.114;5.718;2022-07-29T11:23:19;5.10;;;1.90;;
25503;SDS011;13410;52.114;5.718;2022-07-29T11:28:38;4.68;;;2.10;;
25503;SDS011;13410;52.114;5.718;2022-07-29T11:31:13;5.65;;;2.42;;
25503;SDS011;13410;52.114;5.718;2022-07-29T11:33:42;4.78;;;1.77;;
25503;SDS011;13410;52.114;5.718;2022-07-29T11:36:11;6.15;;;2.00;;
25503;SDS011;13410;52.114;5.718;2022-07-29T11:38:38;6.57;;;2.20;;
25503;SDS011;13410;52.114;5.718;2022-07-29T11:43:52;5.60;;;2.05;;
25503;SDS011;13410;52.114;5.718;2022-07-29T11:49:08;5.10;;;2.22;;
25503;SDS011;13410;52.114;5.718;2022-07-29T11:51:35;3.95;;;2.10;;
25503;SDS011;13410;52.114;5.718;2022-07-29T11:54:01;5.47;;;2.30;;
25503;SDS011;13410;52.114;5.718;2022-07-29T11:56:29;2.70;;;2.00;;
25503;SDS011;13410;52.114;5.718;2022-07-29T11:59:06;5.57;;;2.33;;
25503;SDS011;13410;52.114;5.718;2022-07-29T12:01:34;3.58;;;2.00;;
25503;SDS011;13410;52.114;5.718;2022-07-29T12:04:06;7.68;;;2.17;;
25503;SDS011;13410;52.114;5.718;2022-07-29T12:06:33;4.55;;;2.20;;
25503;SDS011;13410;52.114;5.718;2022-07-29T12:08:59;5.50;;;2.13;;
25503;SDS011;13410;52.114;5.718;2022-07-29T12:11:25;3.92;;;2.00;;
25503;SDS011;13410;52.114;5.718;2022-07-29T12:13:51;3.85;;;2.17;;
25503;SDS011;13410;52.114;5.718;2022-07-29T12:16:18;4.28;;;2.00;;
25503;SDS011;13410;52.114;5.718;2022-07-29T12:18:55;7.10;;;2.42;;
25503;SDS011;13410;52.114;5.718;2022-07-29T12:21:25;5.47;;;2.10;;
25503;SDS011;13410;52.114;5.718;2022-07-29T12:23:52;3.78;;;2.25;;
25503;SDS011;13410;52.114;5.718;2022-07-29T12:26:19;3.90;;;1.95;;
25503;SDS011;13410;52.114;5.718;2022-07-29T12:28:45;5.47;;;2.10;;
25503;SDS011;13410;52.114;5.718;2022-07-29T12:31:14;4.57;;;2.17;;
25503;SDS011;13410;52.114;5.718;2022-07-29T12:33:41;4.57;;;2.08;;
25503;SDS011;13410;52.114;5.718;2022-07-29T12:36:07;5.45;;;2.20;;
25503;SDS011;13410;52.114;5.718;2022-07-29T12:38:33;2.67;;;2.03;;
25503;SDS011;13410;52.114;5.718;2022-07-29T12:41:00;7.30;;;2.15;;
25503;SDS011;13410;52.114;5.718;2022-07-29T12:43:26;7.32;;;2.00;;
25503;SDS011;13410;52.114;5.718;2022-07-29T12:45:53;4.40;;;2.30;;
25503;SDS011;13410;52.114;5.718;2022-07-29T12:48:38;6.70;;;2.55;;
25503;SDS011;13410;52.114;5.718;2022-07-29T12:51:06;4.15;;;2.38;;
25503;SDS011;13410;52.114;5.718;2022-07-29T12:53:34;5.80;;;2.20;;
25503;SDS011;13410;52.114;5.718;2022-07-29T12:56:00;3.25;;;2.00;;
25503;SDS011;13410;52.114;5.718;2022-07-29T12:58:40;4.00;;;2.20;;
25503;SDS011;13410;52.114;5.718;2022-07-29T13:01:11;4.07;;;2.38;;
25503;SDS011;13410;52.114;5.718;2022-07-29T13:03:46;4.03;;;2.20;;
25503;SDS011;13410;52.114;5.718;2022-07-29T13:09:11;5.50;;;2.90;;
25503;SDS011;13410;52.114;5.718;2022-07-29T13:11:40;10.85;;;2.60;;
25503;SDS011;13410;52.114;5.718;2022-07-29T13:14:42;4.70;;;2.53;;
25503;SDS011;13410;52.114;5.718;2022-07-29T13:17:10;6.03;;;2.40;;
25503;SDS011;13410;52.114;5.718;2022-07-29T13:19:46;5.43;;;2.90;;
25503;SDS011;13410;52.114;5.718;2022-07-29T13:22:15;4.70;;;2.60;;
25503;SDS011;13410;52.114;5.718;2022-07-29T13:24:56;4.40;;;2.47;;
25503;SDS011;13410;52.114;5.718;2022-07-29T13:27:23;5.10;;;2.58;;
25503;SDS011;13410;52.114;5.718;2022-07-29T13:29:54;8.68;;;2.63;;
25503;SDS011;13410;52.114;5.718;2022-07-29T13:32:22;3.60;;;2.90;;
25503;SDS011;13410;52.114;5.718;2022-07-29T13:34:50;5.65;;;3.10;;
25503;SDS011;13410;52.114;5.718;2022-07-29T13:37:15;9.55;;;2.97;;
25503;SDS011;13410;52.114;5.718;2022-07-29T13:39:41;5.90;;;3.00;;
25503;SDS011;13410;52.114;5.718;2022-07-29T13:42:07;7.60;;;3.22;;
25503;SDS011;13410;52.114;5.718;2022-07-29T13:44:33;5.88;;;2.70;;
25503;SDS011;13410;52.114;5.718;2022-07-29T13:47:00;6.28;;;3.03;;
25503;SDS011;13410;52.114;5.718;2022-07-29T13:49:25;7.63;;;3.40;;
25503;SDS011;13410;52.114;5.718;2022-07-29T13:51:52;5.60;;;3.70;;
25503;SDS011;13410;52.114;5.718;2022-07-29T13:54:18;5.95;;;4.15;;
25503;SDS011;13410;52.114;5.718;2022-07-29T13:56:44;6.35;;;4.28;;
25503;SDS011;13410;52.114;5.718;2022-07-29T13:59:10;7.50;;;3.40;;
25503;SDS011;13410;52.114;5.718;2022-07-29T14:01:37;5.07;;;3.60;;
25503;SDS011;13410;52.114;5.718;2022-07-29T14:04:06;7.15;;;3.60;;
25503;SDS011;13410;52.114;5.718;2022-07-29T14:06:32;7.18;;;3.90;;
25503;SDS011;13410;52.114;5.718;2022-07-29T14:08:58;9.40;;;4.05;;
25503;SDS011;13410;52.114;5.718;2022-07-29T14:11:23;10.02;;;3.90;;
25503;SDS011;13410;52.114;5.718;2022-07-29T14:13:49;5.32;;;3.60;;
25503;SDS011;13410;52.114;5.718;2022-07-29T14:16:15;6.45;;;3.22;;
25503;SDS011;13410;52.114;5.718;2022-07-29T14:18:40;6.80;;;3.92;;
25503;SDS011;13410;52.114;5.718;2022-07-29T14:21:09;5.30;;;2.72;;
25503;SDS011;13410;52.114;5.718;2022-07-29T14:23:35;6.32;;;3.22;;
25503;SDS011;13410;52.114;5.718;2022-07-29T14:26:01;7.65;;;3.67;;
25503;SDS011;13410;52.114;5.718;2022-07-29T14:28:27;6.35;;;3.35;;
25503;SDS011;13410;52.114;5.718;2022-07-29T14:30:52;8.82;;;3.40;;
25503;SDS011;13410;52.114;5.718;2022-07-29T14:33:18;6.90;;;3.50;;
25503;SDS011;13410;52.114;5.718;2022-07-29T14:35:44;6.68;;;3.40;;
25503;SDS011;13410;52.114;5.718;2022-07-29T14:38:10;8.27;;;3.25;;
25503;SDS011;13410;52.114;5.718;2022-07-29T14:40:36;8.27;;;3.17;;
25503;SDS011;13410;52.114;5.718;2022-07-29T14:43:01;5.80;;;3.42;;
25503;SDS011;13410;52.114;5.718;2022-07-29T14:45:28;5.18;;;3.47;;
25503;SDS011;13410;52.114;5.718;2022-07-29T14:47:54;6.32;;;3.58;;
25503;SDS011;13410;52.114;5.718;2022-07-29T14:50:20;7.05;;;3.50;;
25503;SDS011;13410;52.114;5.718;2022-07-29T14:52:45;7.05;;;3.17;;
25503;SDS011;13410;52.114;5.718;2022-07-29T14:55:14;6.80;;;3.30;;
25503;SDS011;13410;52.114;5.718;2022-07-29T14:57:39;6.75;;;3.00;;
25503;SDS011;13410;52.114;5.718;2022-07-29T15:00:05;6.82;;;3.28;;
25503;SDS011;13410;52.114;5.718;2022-07-29T15:02:35;4.40;;;2.92;;
25503;SDS011;13410;52.114;5.718;2022-07-29T15:05:00;6.43;;;2.70;;
25503;SDS011;13410;52.114;5.718;2022-07-29T15:07:26;6.20;;;2.40;;
25503;SDS011;13410;52.114;5.718;2022-07-29T15:09:52;6.53;;;2.65;;
25503;SDS011;13410;52.114;5.718;2022-07-29T15:12:18;6.88;;;2.60;;
25503;SDS011;13410;52.114;5.718;2022-07-29T15:14:44;6.53;;;3.00;;
25503;SDS011;13410;52.114;5.718;2022-07-29T15:17:09;4.68;;;2.60;;
25503;SDS011;13410;52.114;5.718;2022-07-29T15:19:35;5.93;;;2.60;;
25503;SDS011;13410;52.114;5.718;2022-07-29T15:22:01;4.57;;;2.63;;
25503;SDS011;13410;52.114;5.718;2022-07-29T15:24:29;5.03;;;2.70;;
25503;SDS011;13410;52.114;5.718;2022-07-29T15:26:55;9.90;;;2.65;;
25503;SDS011;13410;52.114;5.718;2022-07-29T15:29:21;8.65;;;2.83;;
25503;SDS011;13410;52.114;5.718;2022-07-29T15:31:46;4.82;;;2.30;;
25503;SDS011;13410;52.114;5.718;2022-07-29T15:34:12;4.22;;;2.72;;
25503;SDS011;13410;52.114;5.718;2022-07-29T15:36:37;5.18;;;2.55;;
25503;SDS011;13410;52.114;5.718;2022-07-29T15:39:03;5.20;;;2.65;;
25503;SDS011;13410;52.114;5.718;2022-07-29T15:41:29;4.75;;;2.33;;
25503;SDS011;13410;52.114;5.718;2022-07-29T15:43:54;5.38;;;2.85;;
25503;SDS011;13410;52.114;5.718;2022-07-29T15:46:20;6.88;;;2.33;;
25503;SDS011;13410;52.114;5.718;2022-07-29T15:49:04;4.75;;;2.70;;
25503;SDS011;13410;52.114;5.718;2022-07-29T15:51:31;5.95;;;2.90;;
25503;SDS011;13410;52.114;5.718;2022-07-29T15:53:57;6.72;;;3.00;;
25503;SDS011;13410;52.114;5.718;2022-07-29T15:56:22;5.22;;;2.22;;
25503;SDS011;13410;52.114;5.718;2022-07-29T15:58:49;6.18;;;2.67;;
25503;SDS011;13410;52.114;5.718;2022-07-29T16:01:14;5.35;;;2.55;;